PANC/ANC METAR and TAF weather

Enter ICAO airport designator
Station Type Date Time Source
PANC METAR 2019/06/26 05:53 UTC NOAA

PANC 260553Z 25005KT 10SM FEW000 FEW045 SCT200 17/12 A3007 RMK AO2 SLP182 FU FEW000 T01720117 10194 20161 51015


Station Type Date Time Source
PANC Decoded METAR 2019/06/26 05:53 UTC NOAA

TED STEVENS ANCHORAGE INTERNATIONAL , AK, United States (PANC) 61-10N 150-02W 48M
Jun 26, 2019 - 01:53 AM EDT / 2019.06.26 0553 UTC
Wind: from the WSW (250 degrees) at 6 MPH (5 KT):0
Visibility: 10 mile(s):0
Sky conditions: partly cloudy
Temperature: 63.0 F (17.2 C)
Dew Point: 53.1 F (11.7 C)
Relative Humidity: 70%
Pressure (altimeter): 30.07 in. Hg (1018 hPa)
Pressure tendency: 0.04 inches (1.5 hPa) higher than three hours ago
ob: PANC 260553Z 25005KT 10SM FEW000 FEW045 SCT200 17/12 A3007 RMK AO2 SLP182 FU FEW000 T01720117 10194 20161 51015
cycle: 6

Station Type Date Time Source
PANC TAF 2019/06/26 06:36 UTC NOAA

TAF PANC 260534Z 2606/2712 29007KT P6SM FEW045 SCT200
FM260800 20004KT 6SM FU FEW045 SCT200
FM261900 28007KT P6SM FEW200

Example: see airport list